createdAt,value
2022-10-18T00:02:16.678Z,102628.38
2022-10-18T00:04:50.094Z,102631.09
2022-10-18T00:07:16.464Z,102630.03
2022-10-18T00:09:42.828Z,102631.09
2022-10-18T00:12:17.383Z,102629.22
2022-10-18T00:14:43.733Z,102625.91
2022-10-18T00:17:10.316Z,102627.81
2022-10-18T00:19:36.783Z,102625.06
2022-10-18T00:22:03.291Z,102619.63
2022-10-18T00:24:29.747Z,102619.63
2022-10-18T00:26:56.267Z,102625.34
2022-10-18T00:29:22.627Z,102632.19
2022-10-18T00:31:48.984Z,102634.91
2022-10-18T00:34:47.661Z,102636.81
2022-10-18T00:37:15.243Z,102637.63
2022-10-18T00:39:42.001Z,102634.91
2022-10-18T00:42:16.120Z,102642.28
2022-10-18T00:44:42.409Z,102637.63
2022-10-18T00:47:11.551Z,102640.94
2022-10-18T00:49:42.615Z,102635.50
2022-10-18T00:52:23.804Z,102637.63
2022-10-18T00:54:57.707Z,102635.50
2022-10-18T00:57:28.691Z,102634.91
2022-10-18T00:59:55.548Z,102643.09
2022-10-18T01:02:22.453Z,102640.34
2022-10-18T01:04:49.124Z,102649.38
2022-10-18T01:07:50.407Z,102639.28
2022-10-18T01:10:30.479Z,102646.06
2022-10-18T01:13:10.485Z,102643.56
2022-10-18T01:15:58.620Z,102648.44
2022-10-18T01:18:37.289Z,102649.47
2022-10-18T01:21:21.965Z,102643.44
2022-10-18T01:24:32.182Z,102639.06
2022-10-18T01:27:07.621Z,102643.72
2022-10-18T01:29:53.362Z,102647.50
2022-10-18T01:32:26.637Z,102659.47
2022-10-18T01:34:58.092Z,102661.34
2022-10-18T01:37:26.184Z,102661.63
2022-10-18T01:39:57.011Z,102668.47
2022-10-18T01:42:24.524Z,102657.56
2022-10-18T01:44:52.578Z,102660.28
2022-10-18T01:47:20.247Z,102668.47
2022-10-18T01:49:46.783Z,102664.94
2022-10-18T01:52:14.307Z,102662.78
2022-10-18T01:54:48.324Z,102656.50
2022-10-18T01:57:27.668Z,102656.75
2022-10-18T02:00:21.855Z,102650.47
2022-10-18T02:02:53.962Z,102649.63
2022-10-18T02:05:43.887Z,102649.63
2022-10-18T02:08:30.872Z,102652.59
2022-10-18T02:11:17.620Z,102652.00
2022-10-18T02:13:55.254Z,102659.38
2022-10-18T02:16:26.245Z,102661.75
2022-10-18T02:18:59.176Z,102658.47
2022-10-18T02:21:33.597Z,102655.38
2022-10-18T02:24:02.440Z,102654.56
2022-10-18T02:26:29.645Z,102660.03
2022-10-18T02:28:56.527Z,102653.97
2022-10-18T02:31:41.331Z,102651.47
2022-10-18T02:34:21.489Z,102655.53
2022-10-18T02:36:52.811Z,102663.13
2022-10-18T02:39:47.161Z,102660.63
2022-10-18T02:42:14.120Z,102656.50
2022-10-18T02:44:40.666Z,102654.84
2022-10-18T02:47:09.774Z,102651.53
2022-10-18T02:49:36.261Z,102663.50
2022-10-18T02:52:02.981Z,102656.03
2022-10-18T02:54:29.511Z,102655.69
2022-10-18T02:56:55.981Z,102664.34
2022-10-18T02:59:22.350Z,102663.19
2022-10-18T03:01:50.928Z,102656.56
2022-10-18T03:04:21.591Z,102648.28
2022-10-18T03:06:47.999Z,102649.81
2022-10-18T03:09:14.385Z,102646.50
2022-10-18T03:11:40.830Z,102652.44
2022-10-18T03:14:07.306Z,102651.84
2022-10-18T03:16:34.395Z,102661.34
2022-10-18T03:19:00.928Z,102659.91
2022-10-18T03:21:27.492Z,102658.25
2022-10-18T03:23:54.093Z,102658.25
2022-10-18T03:26:21.572Z,102658.72
2022-10-18T03:28:48.216Z,102659.78
2022-10-18T03:31:14.852Z,102662.41
2022-10-18T03:33:41.280Z,102664.31
2022-10-18T03:36:07.861Z,102661.81
2022-10-18T03:38:34.444Z,102661.00
2022-10-18T03:41:01.088Z,102657.44
2022-10-18T03:43:31.807Z,102656.84
2022-10-18T03:45:58.558Z,102658.97
2022-10-18T03:48:26.320Z,102661.69
2022-10-18T03:50:53.045Z,102659.22
2022-10-18T03:53:19.815Z,102665.34
2022-10-18T03:55:53.549Z,102670.78
2022-10-18T03:58:20.853Z,102675.66
2022-10-18T04:00:51.899Z,102664.16
2022-10-18T04:03:19.500Z,102655.41
2022-10-18T04:05:47.532Z,102662.16
2022-10-18T04:08:14.886Z,102661.56
2022-10-18T04:10:41.894Z,102664.78
2022-10-18T04:13:08.550Z,102657.31
2022-10-18T04:15:35.186Z,102663.25
2022-10-18T04:18:02.182Z,102655.56
2022-10-18T04:20:28.761Z,102658.97
2022-10-18T04:22:57.437Z,102666.78
2022-10-18T04:25:25.002Z,102669.72
2022-10-18T04:27:51.781Z,102665.59
2022-10-18T04:30:18.332Z,102666.03
2022-10-18T04:32:44.824Z,102655.63
2022-10-18T04:35:11.762Z,102662.34
2022-10-18T04:37:40.309Z,102659.84
2022-10-18T04:40:07.680Z,102652.38
2022-10-18T04:42:34.310Z,102654.16
2022-10-18T04:45:00.710Z,102668.81
2022-10-18T04:47:45.521Z,102665.50
2022-10-18T04:50:11.945Z,102669.75
2022-10-18T04:52:38.484Z,102666.44
2022-10-18T04:55:05.411Z,102666.88
2022-10-18T04:57:32.240Z,102675.25
2022-10-18T05:00:10.549Z,102663.56
2022-10-18T05:02:37.135Z,102672.78
2022-10-18T05:05:23.211Z,102671.38
2022-10-18T05:07:51.357Z,102670.78
2022-10-18T05:10:18.098Z,102670.19
2022-10-18T05:12:44.713Z,102679.63
2022-10-18T05:15:11.322Z,102676.28
2022-10-18T05:17:37.895Z,102687.16
2022-10-18T05:20:04.910Z,102693.06
2022-10-18T05:22:31.630Z,102685.38
2022-10-18T05:24:58.421Z,102683.09
2022-10-18T05:27:24.974Z,102696.94
2022-10-18T05:29:51.434Z,102690.31
2022-10-18T05:32:19.297Z,102698.66
2022-10-18T05:34:45.985Z,102705.16
2022-10-18T05:37:12.543Z,102695.34
2022-10-18T05:39:39.457Z,102704.56
2022-10-18T05:42:06.308Z,102700.78
2022-10-18T05:44:32.956Z,102702.44
2022-10-18T05:47:05.706Z,102709.53
2022-10-18T05:49:32.217Z,102707.41
2022-10-18T05:51:58.718Z,102709.06
2022-10-18T05:54:26.377Z,102713.69
2022-10-18T05:57:09.241Z,102715.22
2022-10-18T05:59:45.171Z,102721.69
2022-10-18T06:02:18.705Z,102722.50
2022-10-18T06:04:47.512Z,102732.78
2022-10-18T06:07:14.056Z,102734.44
2022-10-18T06:09:41.616Z,102736.94
2022-10-18T06:12:09.129Z,102735.03
2022-10-18T06:14:44.875Z,102740.47
2022-10-18T06:17:11.744Z,102742.59
2022-10-18T06:19:39.338Z,102756.78
2022-10-18T06:22:05.840Z,102752.19
2022-10-18T06:25:10.887Z,102749.22
2022-10-18T06:27:38.463Z,102757.16
2022-10-18T06:30:08.604Z,102769.69
2022-10-18T06:32:35.110Z,102769.91
2022-10-18T06:35:27.450Z,102766.13
2022-10-18T06:37:53.929Z,102765.06
2022-10-18T06:40:37.826Z,102766.72
2022-10-18T06:43:20.088Z,102771.56
2022-10-18T06:45:55.224Z,102787.88
2022-10-18T06:48:22.307Z,102780.78
2022-10-18T06:51:01.233Z,102790.38
2022-10-18T06:53:31.429Z,102793.91
2022-10-18T06:56:52.885Z,102798.28
2022-10-18T06:59:30.462Z,102810.81
2022-10-18T07:01:58.026Z,102807.03
2022-10-18T07:04:24.543Z,102804.31
2022-10-18T07:06:54.302Z,102814.13
2022-10-18T07:09:47.950Z,102814.13
2022-10-18T07:12:20.498Z,102820.16
2022-10-18T07:14:46.951Z,102822.66
2022-10-18T07:17:13.563Z,102818.66
2022-10-18T07:19:40.098Z,102826.81
2022-10-18T07:22:14.666Z,102823.88
2022-10-18T07:24:41.318Z,102822.56
2022-10-18T07:27:07.883Z,102822.72
2022-10-18T07:29:41.750Z,102826.91
2022-10-18T07:32:08.218Z,102835.41
2022-10-18T07:34:34.628Z,102846.28
2022-10-18T07:37:27.853Z,102846.88
2022-10-18T07:39:56.700Z,102838.13
2022-10-18T07:42:24.893Z,102849.59
2022-10-18T07:44:51.494Z,102844.16
2022-10-18T07:47:18.264Z,102843.13
2022-10-18T07:49:44.793Z,102846.44
2022-10-18T07:52:24.698Z,102846.44
2022-10-18T07:55:01.335Z,102859.56
2022-10-18T07:57:27.868Z,102862.50
2022-10-18T07:59:57.693Z,102866.72
2022-10-18T08:02:28.293Z,102865.66
2022-10-18T08:05:19.815Z,102861.69
2022-10-18T08:07:46.262Z,102875.44
2022-10-18T08:10:12.696Z,102873.31
2022-10-18T08:12:39.079Z,102886.00
2022-10-18T08:15:28.506Z,102883.41
2022-10-18T08:17:54.927Z,102879.19
2022-10-18T08:20:30.453Z,102884.81
2022-10-18T08:23:00.076Z,102879.97
2022-10-18T08:25:27.429Z,102872.25
2022-10-18T08:27:55.888Z,102882.22
2022-10-18T08:30:23.517Z,102886.16
2022-10-18T08:32:58.313Z,102877.28
2022-10-18T08:35:24.832Z,102874.47
2022-10-18T08:37:56.569Z,102886.09
2022-10-18T08:40:34.786Z,102880.56
2022-10-18T08:43:20.755Z,102869.56
2022-10-18T08:45:55.643Z,102879.06
2022-10-18T08:48:41.778Z,102881.91
2022-10-18T08:51:46.321Z,102881.13
2022-10-18T08:54:15.922Z,102879.84
2022-10-18T08:57:02.577Z,102880.09
2022-10-18T08:59:37.901Z,102877.03
2022-10-18T09:02:10.413Z,102874.44
2022-10-18T09:04:49.413Z,102876.22
2022-10-18T09:07:42.871Z,102876.53
2022-10-18T09:10:39.488Z,102873.84
2022-10-18T09:13:55.728Z,102886.28
2022-10-18T09:16:34.339Z,102884.13
2022-10-18T09:19:25.500Z,102886.06
2022-10-18T09:22:04.018Z,102882.94
2022-10-18T09:24:56.540Z,102897.19
2022-10-18T09:27:37.353Z,102904.28
2022-10-18T09:30:23.204Z,102904.19
2022-10-18T09:33:03.122Z,102902.03
2022-10-18T09:35:42.581Z,102908.91
2022-10-18T09:38:16.677Z,102911.63
2022-10-18T09:41:19.771Z,102904.28
2022-10-18T09:43:51.561Z,102902.97
2022-10-18T09:46:20.236Z,102904.41
2022-10-18T09:49:05.903Z,102916.50
2022-10-18T09:51:38.333Z,102911.63
2022-10-18T09:54:55.354Z,102908.97
2022-10-18T09:57:42.530Z,102899.84
2022-10-18T10:00:20.822Z,102916.09
2022-10-18T10:02:54.759Z,102910.97
2022-10-18T10:05:21.148Z,102909.66
2022-10-18T10:07:57.059Z,102909.19
2022-10-18T10:10:35.541Z,102908.22
2022-10-18T10:13:24.404Z,102914.84
2022-10-18T10:16:00.517Z,102916.00
2022-10-18T10:18:33.754Z,102921.00
2022-10-18T10:21:05.599Z,102921.47
2022-10-18T10:23:32.086Z,102922.44
2022-10-18T10:26:35.187Z,102922.94
2022-10-18T10:29:51.595Z,102928.88
2022-10-18T10:32:20.857Z,102933.72
2022-10-18T10:34:47.429Z,102926.63
2022-10-18T10:37:33.077Z,102931.72
2022-10-18T10:40:40.289Z,102939.31
2022-10-18T10:43:39.425Z,102937.66
2022-10-18T10:46:11.924Z,102941.22
2022-10-18T10:48:49.618Z,102937.41
2022-10-18T10:51:39.311Z,102944.19
2022-10-18T10:54:24.397Z,102947.16
2022-10-18T10:57:03.941Z,102948.72
2022-10-18T10:59:48.659Z,102941.59
2022-10-18T11:02:15.345Z,102943.94
2022-10-18T11:04:42.452Z,102945.63
2022-10-18T11:07:51.346Z,102943.13
2022-10-18T11:10:22.971Z,102951.53
2022-10-18T11:13:39.315Z,102946.94
2022-10-18T11:16:14.258Z,102953.72
2022-10-18T11:18:46.187Z,102950.97
2022-10-18T11:21:27.259Z,102950.41
2022-10-18T11:23:54.220Z,102944.44
2022-10-18T11:26:39.450Z,102940.31
2022-10-18T11:29:39.703Z,102930.78
2022-10-18T11:32:39.696Z,102936.25
2022-10-18T11:35:45.101Z,102937.69
2022-10-18T11:38:29.616Z,102943.72
2022-10-18T11:41:29.077Z,102937.22
2022-10-18T11:44:03.066Z,102940.03
2022-10-18T11:46:29.817Z,102945.59
2022-10-18T11:49:34.959Z,102946.19
2022-10-18T11:52:13.692Z,102945.25
2022-10-18T11:55:22.831Z,102945.44
2022-10-18T11:58:20.143Z,102949.34
2022-10-18T12:01:13.261Z,102945.66
2022-10-18T12:03:56.521Z,102932.09
2022-10-18T12:06:28.312Z,102938.88
2022-10-18T12:09:01.799Z,102938.06
2022-10-18T12:12:09.949Z,102935.56
2022-10-18T12:14:49.364Z,102938.06
2022-10-18T12:17:50.112Z,102935.31
2022-10-18T12:24:02.073Z,102926.69
2022-10-18T12:26:34.613Z,102923.72
2022-10-18T12:29:48.036Z,102925.59
2022-10-18T12:32:22.102Z,102922.06
2022-10-18T12:34:53.945Z,102926.94
2022-10-18T12:37:48.155Z,102918.66
2022-10-18T12:40:21.644Z,102923.03
2022-10-18T12:42:51.094Z,102921.97
2022-10-18T12:45:30.949Z,102925.28
2022-10-18T12:48:25.833Z,102921.97
2022-10-18T12:50:59.168Z,102920.63
2022-10-18T12:53:28.427Z,102916.00
2022-10-18T12:55:55.389Z,102919.81
2022-10-18T12:58:23.587Z,102918.16
2022-10-18T13:00:49.860Z,102919.22
2022-10-18T13:03:19.352Z,102916.97
2022-10-18T13:06:16.729Z,102907.72
2022-10-18T13:08:43.507Z,102903.34
2022-10-18T13:11:10.073Z,102903.44
2022-10-18T13:14:05.709Z,102909.50
2022-10-18T13:16:41.116Z,102902.97
2022-10-18T13:19:45.067Z,102889.91
2022-10-18T13:22:24.169Z,102897.34
2022-10-18T13:25:05.389Z,102899.84
2022-10-18T13:27:43.503Z,102885.25
2022-10-18T13:30:17.948Z,102886.59
2022-10-18T13:32:48.585Z,102884.94
2022-10-18T13:35:44.402Z,102893.13
2022-10-18T13:38:35.173Z,102891.19
2022-10-18T13:41:02.431Z,102897.59
2022-10-18T13:43:56.860Z,102907.19
2022-10-18T13:46:45.248Z,102911.25
2022-10-18T13:49:28.749Z,102903.66
2022-10-18T13:52:13.909Z,102905.94
2022-10-18T13:55:06.788Z,102903.91
2022-10-18T13:58:12.044Z,102897.25
2022-10-18T14:01:23.012Z,102907.19
2022-10-18T14:04:34.196Z,102902.31
2022-10-18T14:07:05.637Z,102906.19
2022-10-18T14:09:47.850Z,102899.41
2022-10-18T14:12:40.950Z,102911.97
2022-10-18T14:15:18.100Z,102918.03
2022-10-18T14:17:49.316Z,102907.22
2022-10-18T14:20:30.012Z,102901.75
2022-10-18T14:23:05.035Z,102916.00
2022-10-18T14:25:35.910Z,102915.75
2022-10-18T14:28:12.576Z,102919.88
2022-10-18T14:31:07.443Z,102918.00
2022-10-18T14:33:40.686Z,102917.50
2022-10-18T14:36:11.645Z,102913.69
2022-10-18T14:38:54.899Z,102914.50
2022-10-18T14:41:26.395Z,102918.31
2022-10-18T14:44:09.291Z,102930.09
2022-10-18T14:46:52.429Z,102925.94
2022-10-18T14:49:20.977Z,102924.28
2022-10-18T14:51:51.264Z,102933.81
2022-10-18T14:54:22.378Z,102922.03
2022-10-18T14:56:50.668Z,102920.38
2022-10-18T14:59:23.428Z,102930.50
2022-10-18T15:02:02.040Z,102932.38
2022-10-18T15:04:35.271Z,102930.72
2022-10-18T15:07:05.320Z,102939.19
2022-10-18T15:09:34.136Z,102938.34
2022-10-18T15:12:03.729Z,102948.44
2022-10-18T15:14:30.859Z,102930.88
2022-10-18T15:17:08.219Z,102941.44
2022-10-18T15:19:36.823Z,102942.78
2022-10-18T15:25:14.768Z,102941.25
2022-10-18T15:27:49.344Z,102935.19
2022-10-18T15:30:22.446Z,102928.09
2022-10-18T15:32:52.381Z,102930.22
2022-10-18T15:35:31.907Z,102930.13
2022-10-18T15:38:03.453Z,102935.00
2022-10-18T15:40:34.513Z,102929.81
2022-10-18T15:43:35.815Z,102935.75
2022-10-18T15:46:06.521Z,102934.59
2022-10-18T15:48:42.760Z,102946.25
2022-10-18T15:51:47.921Z,102943.50
2022-10-18T15:54:18.857Z,102947.78
2022-10-18T15:56:45.787Z,102949.34
2022-10-18T15:59:27.013Z,102950.91
2022-10-18T16:01:54.071Z,102953.84
2022-10-18T16:04:36.625Z,102951.50
2022-10-18T16:07:02.959Z,102947.28
2022-10-18T16:09:29.384Z,102945.97
2022-10-18T16:11:57.222Z,102943.03
2022-10-18T16:14:32.422Z,102952.16
2022-10-18T16:17:04.007Z,102942.69
2022-10-18T16:19:32.012Z,102958.34
2022-10-18T16:22:06.422Z,102959.28
2022-10-18T16:24:33.472Z,102957.47
2022-10-18T16:26:59.830Z,102955.69
2022-10-18T16:29:41.677Z,102962.06
2022-10-18T16:32:08.029Z,102958.06
2022-10-18T16:34:40.700Z,102955.22
2022-10-18T16:37:07.074Z,102960.53
2022-10-18T16:39:35.296Z,102964.66
2022-10-18T16:42:01.652Z,102966.66
2022-10-18T16:44:28.022Z,102965.69
2022-10-18T16:46:56.267Z,102962.00
2022-10-18T16:49:25.157Z,102957.13
2022-10-18T16:51:52.895Z,102962.66
2022-10-18T16:54:19.407Z,102974.47
2022-10-18T16:56:47.698Z,102976.25
2022-10-18T16:59:24.555Z,102975.84
2022-10-18T17:01:51.126Z,102983.88
2022-10-18T17:04:17.491Z,102990.22
2022-10-18T17:06:44.107Z,102998.25
2022-10-18T17:09:13.129Z,103001.66
2022-10-18T17:11:39.570Z,103005.91
2022-10-18T17:14:06.080Z,103006.81
2022-10-18T17:16:34.584Z,103006.44
2022-10-18T17:19:05.339Z,103004.16
2022-10-18T17:21:33.515Z,103011.13
2022-10-18T17:24:04.480Z,103003.63
2022-10-18T17:26:30.985Z,103007.00
2022-10-18T17:29:00.889Z,103009.78
2022-10-18T17:31:39.590Z,103013.78
2022-10-18T17:34:21.658Z,103019.06
2022-10-18T17:37:05.212Z,103018.28
2022-10-18T17:39:32.248Z,103020.41
2022-10-18T17:41:59.007Z,103019.78
2022-10-18T17:44:25.492Z,103017.28
2022-10-18T17:47:00.088Z,103016.91
2022-10-18T17:49:26.541Z,103019.47
2022-10-18T17:51:52.973Z,103019.91
2022-10-18T17:54:19.348Z,103020.81
2022-10-18T17:56:53.902Z,103019.59
2022-10-18T17:59:23.164Z,103021.31
2022-10-18T18:01:53.995Z,103027.19
2022-10-18T18:04:20.464Z,103020.28
2022-10-18T18:06:50.116Z,103023.44
2022-10-18T18:09:16.750Z,103038.53
2022-10-18T18:11:44.704Z,103044.41
2022-10-18T18:14:17.794Z,103042.56
2022-10-18T18:16:46.514Z,103045.50
2022-10-18T18:19:25.170Z,103044.91
2022-10-18T18:21:53.705Z,103040.13
2022-10-18T18:24:24.651Z,103043.28
2022-10-18T18:27:01.277Z,103046.63
2022-10-18T18:29:28.159Z,103049.59
2022-10-18T18:31:59.252Z,103051.69
2022-10-18T18:34:25.738Z,103039.59
2022-10-18T18:36:52.365Z,103039.19
2022-10-18T18:39:26.094Z,103038.81
2022-10-18T18:41:53.051Z,103047.56
2022-10-18T18:44:21.419Z,103050.53
2022-10-18T18:46:48.689Z,103052.63
2022-10-18T18:49:16.231Z,103052.22
2022-10-18T18:51:42.631Z,103054.72
2022-10-18T18:54:14.634Z,103063.09
2022-10-18T18:56:55.517Z,103066.03
2022-10-18T18:59:29.041Z,103068.13
2022-10-18T19:01:59.646Z,103062.91
2022-10-18T19:04:26.271Z,103069.00
2022-10-18T19:06:52.632Z,103065.88
2022-10-18T19:09:21.596Z,103067.56
2022-10-18T19:11:52.979Z,103071.13
2022-10-18T19:14:19.793Z,103066.53
2022-10-18T19:16:48.637Z,103063.00
2022-10-18T19:19:17.441Z,103065.72
2022-10-18T19:21:51.296Z,103069.66
2022-10-18T19:24:20.616Z,103066.56
2022-10-18T19:26:50.473Z,103070.09
2022-10-18T19:29:21.392Z,103068.03
2022-10-18T19:31:54.215Z,103066.56
2022-10-18T19:34:28.608Z,103068.22
2022-10-18T19:36:55.665Z,103064.06
2022-10-18T19:39:28.223Z,103069.69
2022-10-18T19:41:58.285Z,103064.50
2022-10-18T19:44:28.341Z,103058.22
2022-10-18T19:47:14.349Z,103068.69
2022-10-18T19:49:44.879Z,103057.44
2022-10-18T19:52:34.722Z,103057.84
2022-10-18T19:55:01.332Z,103057.44
2022-10-18T19:57:33.832Z,103058.69
2022-10-18T20:00:00.947Z,103058.06
2022-10-18T20:02:31.695Z,103055.78
2022-10-18T20:05:03.912Z,103064.53
2022-10-18T20:07:30.259Z,103066.84
2022-10-18T20:09:57.699Z,103066.22
2022-10-18T20:12:24.780Z,103063.06
2022-10-18T20:14:53.260Z,103067.06
2022-10-18T20:17:23.641Z,103068.72
2022-10-18T20:19:50.004Z,103072.66
2022-10-18T20:22:27.501Z,103081.84
2022-10-18T20:24:55.840Z,103072.44
2022-10-18T20:27:22.168Z,103069.13
2022-10-18T20:29:50.595Z,103073.28
2022-10-18T20:32:18.076Z,103069.53
2022-10-18T20:34:55.624Z,103077.84
2022-10-18T20:37:38.393Z,103072.03
2022-10-18T20:40:19.877Z,103076.81
2022-10-18T20:42:56.224Z,103076.19
2022-10-18T20:45:23.426Z,103076.63
2022-10-18T20:48:09.589Z,103061.81
2022-10-18T20:50:48.111Z,103070.34
2022-10-18T20:53:15.659Z,103066.19
2022-10-18T20:55:43.562Z,103066.59
2022-10-18T20:58:23.253Z,103055.34
2022-10-18T21:00:49.596Z,103062.19
2022-10-18T21:03:15.941Z,103059.91
2022-10-18T21:05:42.319Z,103053.22
2022-10-18T21:08:18.920Z,103056.56
2022-10-18T21:10:50.397Z,103054.06
2022-10-18T21:13:30.978Z,103058.84
2022-10-18T21:16:00.663Z,103055.72
2022-10-18T21:18:28.456Z,103056.13
2022-10-18T21:20:55.909Z,103051.53
2022-10-18T21:23:39.272Z,103054.84
2022-10-18T21:26:06.823Z,103049.84
2022-10-18T21:28:33.805Z,103050.88
2022-10-18T21:31:14.714Z,103062.75
2022-10-18T21:33:42.073Z,103052.31
2022-10-18T21:36:08.716Z,103056.47
2022-10-18T21:38:35.181Z,103061.03
2022-10-18T21:41:01.993Z,103067.69
2022-10-18T21:43:50.321Z,103066.22
2022-10-18T21:46:27.912Z,103059.34
2022-10-18T21:48:56.078Z,103066.19
2022-10-18T21:51:25.063Z,103063.91
2022-10-18T21:54:13.573Z,103069.31
2022-10-18T21:56:40.200Z,103074.72
2022-10-18T21:59:17.743Z,103065.34
2022-10-18T22:01:45.031Z,103072.81
2022-10-18T22:04:24.919Z,103064.47
2022-10-18T22:06:59.461Z,103065.22
2022-10-18T22:09:25.792Z,103056.47
2022-10-18T22:12:05.785Z,103053.16
2022-10-18T22:14:32.607Z,103051.47
2022-10-18T22:17:26.015Z,103048.13
2022-10-18T22:19:52.389Z,103051.47
2022-10-18T22:22:18.748Z,103050.44
2022-10-18T22:24:45.091Z,103052.50
2022-10-18T22:27:37.693Z,103054.00
2022-10-18T22:30:06.531Z,103052.13
2022-10-18T22:32:32.880Z,103045.66
2022-10-18T22:34:59.231Z,103048.38
2022-10-18T22:37:25.567Z,103040.47
2022-10-18T22:39:51.916Z,103040.03
2022-10-18T22:42:18.295Z,103046.69
2022-10-18T22:44:46.768Z,103041.47
2022-10-18T22:47:19.268Z,103049.97
2022-10-18T22:49:45.621Z,103050.81
2022-10-18T22:52:11.998Z,103048.31
2022-10-18T22:54:38.390Z,103037.69
2022-10-18T22:57:04.720Z,103044.97
2022-10-18T22:59:31.059Z,103045.34
2022-10-18T23:01:57.570Z,103042.88
2022-10-18T23:04:23.893Z,103038.69
2022-10-18T23:06:50.274Z,103040.75
2022-10-18T23:09:16.800Z,103039.06
2022-10-18T23:11:43.239Z,103038.19
2022-10-18T23:14:10.280Z,103042.97
2022-10-18T23:16:36.794Z,103041.50
2022-10-18T23:19:04.261Z,103032.56
2022-10-18T23:21:30.616Z,103030.25
2022-10-18T23:23:57.532Z,103029.59
2022-10-18T23:26:26.148Z,103038.09
2022-10-18T23:28:53.888Z,103033.13
2022-10-18T23:31:23.457Z,103034.16
2022-10-18T23:33:52.643Z,103027.47
2022-10-18T23:36:21.032Z,103040.75
2022-10-18T23:38:47.513Z,103033.66
2022-10-18T23:41:15.120Z,103042.16
2022-10-18T23:43:42.459Z,103051.31
2022-10-18T23:46:09.604Z,103052.50
2022-10-18T23:48:36.056Z,103050.03
2022-10-18T23:51:02.887Z,103053.75
2022-10-18T23:53:30.123Z,103053.09
2022-10-18T23:55:59.073Z,103061.59
2022-10-18T23:58:27.590Z,103056.59
